sensor_id;sensor_type;location;lat;lon;timestamp;temperature;humidity
25200;DHT22;33094;48.782;9.162;2023-03-31T03:31:59;12.10;99.90
25200;DHT22;33094;48.782;9.162;2023-03-31T04:18:03;11.90;99.90
25200;DHT22;33094;48.782;9.162;2023-03-31T04:20:38;11.70;99.90
25200;DHT22;33094;48.782;9.162;2023-03-31T04:23:44;11.70;99.90
25200;DHT22;33094;48.782;9.162;2023-03-31T04:26:20;11.60;99.90
25200;DHT22;33094;48.782;9.162;2023-03-31T04:33:04;11.80;99.90
25200;DHT22;33094;48.782;9.162;2023-03-31T04:49:20;12.20;99.90
25200;DHT22;33094;48.782;9.162;2023-03-31T05:02:29;12.30;99.90
25200;DHT22;33094;48.782;9.162;2023-03-31T05:04:58;12.40;99.90
25200;DHT22;33094;48.782;9.162;2023-03-31T05:07:30;12.30;99.90
25200;DHT22;33094;48.782;9.162;2023-03-31T05:09:55;12.30;99.90
25200;DHT22;33094;48.782;9.162;2023-03-31T05:12:21;12.30;99.90
25200;DHT22;33094;48.782;9.162;2023-03-31T05:14:47;12.30;99.90
25200;DHT22;33094;48.782;9.162;2023-03-31T05:17:13;12.20;99.90
25200;DHT22;33094;48.782;9.162;2023-03-31T05:19:38;12.30;99.90
25200;DHT22;33094;48.782;9.162;2023-03-31T05:22:04;12.20;99.90
25200;DHT22;33094;48.782;9.162;2023-03-31T05:24:30;12.10;99.90
25200;DHT22;33094;48.782;9.162;2023-03-31T05:26:55;11.70;99.90
25200;DHT22;33094;48.782;9.162;2023-03-31T05:29:22;11.50;99.90
25200;DHT22;33094;48.782;9.162;2023-03-31T05:31:48;11.20;99.90
25200;DHT22;33094;48.782;9.162;2023-03-31T05:34:14;11.00;99.90
25200;DHT22;33094;48.782;9.162;2023-03-31T05:36:41;10.90;99.90
25200;DHT22;33094;48.782;9.162;2023-03-31T07:00:04;10.70;99.90
25200;DHT22;33094;48.782;9.162;2023-03-31T07:02:30;10.50;99.90
25200;DHT22;33094;48.782;9.162;2023-03-31T07:04:56;10.60;99.90
25200;DHT22;33094;48.782;9.162;2023-03-31T07:07:21;10.60;99.90
25200;DHT22;33094;48.782;9.162;2023-03-31T07:09:47;10.60;99.90
25200;DHT22;33094;48.782;9.162;2023-03-31T07:12:13;10.60;99.90
25200;DHT22;33094;48.782;9.162;2023-03-31T07:14:38;10.60;99.90
25200;DHT22;33094;48.782;9.162;2023-03-31T07:17:04;10.40;99.90
25200;DHT22;33094;48.782;9.162;2023-03-31T07:19:30;10.60;99.90
25200;DHT22;33094;48.782;9.162;2023-03-31T07:21:56;10.60;99.90
25200;DHT22;33094;48.782;9.162;2023-03-31T07:24:21;10.60;99.90
25200;DHT22;33094;48.782;9.162;2023-03-31T07:26:47;10.70;99.90
25200;DHT22;33094;48.782;9.162;2023-03-31T07:29:13;10.80;99.90
25200;DHT22;33094;48.782;9.162;2023-03-31T07:31:41;10.80;99.90
25200;DHT22;33094;48.782;9.162;2023-03-31T07:34:39;10.80;99.90
25200;DHT22;33094;48.782;9.162;2023-03-31T07:37:07;10.90;99.90
25200;DHT22;33094;48.782;9.162;2023-03-31T07:39:37;10.90;99.90
25200;DHT22;33094;48.782;9.162;2023-03-31T07:42:02;10.90;99.90
25200;DHT22;33094;48.782;9.162;2023-03-31T07:44:28;11.00;99.90
25200;DHT22;33094;48.782;9.162;2023-03-31T07:46:54;11.10;99.90
25200;DHT22;33094;48.782;9.162;2023-03-31T07:49:27;11.00;99.90
25200;DHT22;33094;48.782;9.162;2023-03-31T07:51:53;11.10;99.90
25200;DHT22;33094;48.782;9.162;2023-03-31T07:57:44;11.20;99.90
25200;DHT22;33094;48.782;9.162;2023-03-31T08:00:15;11.40;99.90
25200;DHT22;33094;48.782;9.162;2023-03-31T08:02:42;11.50;99.90
25200;DHT22;33094;48.782;9.162;2023-03-31T08:05:08;11.50;99.90
25200;DHT22;33094;48.782;9.162;2023-03-31T08:07:37;11.40;99.90
25200;DHT22;33094;48.782;9.162;2023-03-31T08:10:05;11.40;99.90
25200;DHT22;33094;48.782;9.162;2023-03-31T08:12:31;11.50;99.90
25200;DHT22;33094;48.782;9.162;2023-03-31T08:14:57;11.60;99.90
25200;DHT22;33094;48.782;9.162;2023-03-31T08:17:23;11.70;99.90
25200;DHT22;33094;48.782;9.162;2023-03-31T08:19:49;11.70;99.90
25200;DHT22;33094;48.782;9.162;2023-03-31T08:22:16;11.80;99.90
25200;DHT22;33094;48.782;9.162;2023-03-31T08:24:53;11.80;99.90
25200;DHT22;33094;48.782;9.162;2023-03-31T08:27:18;12.20;99.90
25200;DHT22;33094;48.782;9.162;2023-03-31T08:29:44;12.30;99.90
25200;DHT22;33094;48.782;9.162;2023-03-31T08:32:10;12.50;99.90
25200;DHT22;33094;48.782;9.162;2023-03-31T08:34:36;12.60;99.90
25200;DHT22;33094;48.782;9.162;2023-03-31T08:37:02;13.00;99.90
25200;DHT22;33094;48.782;9.162;2023-03-31T08:39:28;13.10;99.90
25200;DHT22;33094;48.782;9.162;2023-03-31T08:42:00;13.90;99.90
25200;DHT22;33094;48.782;9.162;2023-03-31T08:47:12;16.60;99.90
25200;DHT22;33094;48.782;9.162;2023-03-31T08:49:44;17.50;99.00
25200;DHT22;33094;48.782;9.162;2023-03-31T08:52:15;18.40;97.60
25200;DHT22;33094;48.782;9.162;2023-03-31T08:54:46;19.00;97.10
25200;DHT22;33094;48.782;9.162;2023-03-31T08:57:23;19.30;96.30
25200;DHT22;33094;48.782;9.162;2023-03-31T08:59:49;18.80;96.60
25200;DHT22;33094;48.782;9.162;2023-03-31T09:02:35;18.40;96.60
25200;DHT22;33094;48.782;9.162;2023-03-31T09:10:42;19.30;95.80
25200;DHT22;33094;48.782;9.162;2023-03-31T09:16:18;18.90;96.00
25200;DHT22;33094;48.782;9.162;2023-03-31T09:18:46;19.50;95.10
25200;DHT22;33094;48.782;9.162;2023-03-31T09:21:25;18.10;94.60
25200;DHT22;33094;48.782;9.162;2023-03-31T09:24:10;17.90;95.40
25200;DHT22;33094;48.782;9.162;2023-03-31T09:26:59;18.60;95.10
25200;DHT22;33094;48.782;9.162;2023-03-31T09:29:30;19.60;93.60
25200;DHT22;33094;48.782;9.162;2023-03-31T09:32:23;19.30;93.30
25200;DHT22;33094;48.782;9.162;2023-03-31T09:34:51;18.10;94.20
25200;DHT22;33094;48.782;9.162;2023-03-31T09:37:26;17.70;94.40
25200;DHT22;33094;48.782;9.162;2023-03-31T09:40:18;17.20;95.00
25200;DHT22;33094;48.782;9.162;2023-03-31T09:43:13;16.50;95.70
25200;DHT22;33094;48.782;9.162;2023-03-31T09:49:09;15.80;96.90
25200;DHT22;33094;48.782;9.162;2023-03-31T09:51:41;15.30;96.90
25200;DHT22;33094;48.782;9.162;2023-03-31T09:54:32;15.80;96.80
25200;DHT22;33094;48.782;9.162;2023-03-31T09:56:59;17.00;93.90
25200;DHT22;33094;48.782;9.162;2023-03-31T09:59:33;17.30;94.20
25200;DHT22;33094;48.782;9.162;2023-03-31T10:02:21;17.20;94.10
25200;DHT22;33094;48.782;9.162;2023-03-31T10:07:33;18.60;93.10
25200;DHT22;33094;48.782;9.162;2023-03-31T10:17:50;20.50;90.70
25200;DHT22;33094;48.782;9.162;2023-03-31T10:20:22;21.30;90.10
25200;DHT22;33094;48.782;9.162;2023-03-31T10:22:51;21.80;89.50
25200;DHT22;33094;48.782;9.162;2023-03-31T10:25:22;21.20;88.60
25200;DHT22;33094;48.782;9.162;2023-03-31T10:33:03;20.10;89.20
25200;DHT22;33094;48.782;9.162;2023-03-31T10:45:56;19.70;88.20
25200;DHT22;33094;48.782;9.162;2023-03-31T11:26:06;14.50;96.50
25200;DHT22;33094;48.782;9.162;2023-03-31T11:34:53;10.10;99.90
25200;DHT22;33094;48.782;9.162;2023-03-31T11:40:15;10.00;99.90
25200;DHT22;33094;48.782;9.162;2023-03-31T11:50:46;10.40;99.90
25200;DHT22;33094;48.782;9.162;2023-03-31T11:55:50;10.50;99.90
25200;DHT22;33094;48.782;9.162;2023-03-31T11:58:22;10.60;99.90
25200;DHT22;33094;48.782;9.162;2023-03-31T12:00:57;10.70;99.90
25200;DHT22;33094;48.782;9.162;2023-03-31T12:03:52;11.10;99.90
25200;DHT22;33094;48.782;9.162;2023-03-31T12:21:56;16.00;96.10
25200;DHT22;33094;48.782;9.162;2023-03-31T12:24:26;14.70;97.10
25200;DHT22;33094;48.782;9.162;2023-03-31T12:29:57;14.70;97.80
25200;DHT22;33094;48.782;9.162;2023-03-31T13:14:20;16.40;93.70
25200;DHT22;33094;48.782;9.162;2023-03-31T13:19:41;15.00;95.70
25200;DHT22;33094;48.782;9.162;2023-03-31T13:38:22;11.60;99.90
25200;DHT22;33094;48.782;9.162;2023-03-31T13:48:38;11.40;99.90
25200;DHT22;33094;48.782;9.162;2023-03-31T14:06:51;10.40;99.90
25200;DHT22;33094;48.782;9.162;2023-03-31T14:09:30;10.10;99.90
25200;DHT22;33094;48.782;9.162;2023-03-31T14:11:58;10.10;99.90
25200;DHT22;33094;48.782;9.162;2023-03-31T14:14:24;10.20;99.90
25200;DHT22;33094;48.782;9.162;2023-03-31T14:16:59;10.60;99.90
25200;DHT22;33094;48.782;9.162;2023-03-31T14:39:31;12.30;99.90
25200;DHT22;33094;48.782;9.162;2023-03-31T14:42:01;12.50;99.90
25200;DHT22;33094;48.782;9.162;2023-03-31T14:44:28;12.70;99.90
25200;DHT22;33094;48.782;9.162;2023-03-31T14:46:57;13.10;99.90
25200;DHT22;33094;48.782;9.162;2023-03-31T14:49:34;13.30;99.90
25200;DHT22;33094;48.782;9.162;2023-03-31T14:52:14;13.30;99.90
25200;DHT22;33094;48.782;9.162;2023-03-31T14:54:40;13.40;99.90
25200;DHT22;33094;48.782;9.162;2023-03-31T14:57:17;13.30;99.70
25200;DHT22;33094;48.782;9.162;2023-03-31T14:59:50;13.20;99.50
25200;DHT22;33094;48.782;9.162;2023-03-31T15:02:33;13.10;99.40
25200;DHT22;33094;48.782;9.162;2023-03-31T15:05:03;13.10;99.90
25200;DHT22;33094;48.782;9.162;2023-03-31T15:07:30;13.20;99.60
25200;DHT22;33094;48.782;9.162;2023-03-31T15:09:56;13.10;99.70
25200;DHT22;33094;48.782;9.162;2023-03-31T15:12:22;13.00;99.90
25200;DHT22;33094;48.782;9.162;2023-03-31T15:14:57;13.10;99.90
25200;DHT22;33094;48.782;9.162;2023-03-31T15:17:29;13.10;99.90
25200;DHT22;33094;48.782;9.162;2023-03-31T15:20:30;13.10;99.80
25200;DHT22;33094;48.782;9.162;2023-03-31T15:22:57;13.00;99.80
25200;DHT22;33094;48.782;9.162;2023-03-31T15:25:32;12.90;99.80
25200;DHT22;33094;48.782;9.162;2023-03-31T15:30:35;13.00;99.80
25200;DHT22;33094;48.782;9.162;2023-03-31T15:41:45;13.50;99.40
25200;DHT22;33094;48.782;9.162;2023-03-31T15:44:35;13.50;99.40
25200;DHT22;33094;48.782;9.162;2023-03-31T15:47:22;13.60;99.30
25200;DHT22;33094;48.782;9.162;2023-03-31T15:50:09;13.50;99.20
25200;DHT22;33094;48.782;9.162;2023-03-31T15:52:44;13.40;99.20
25200;DHT22;33094;48.782;9.162;2023-03-31T15:55:29;13.30;99.60
25200;DHT22;33094;48.782;9.162;2023-03-31T15:58:00;13.30;98.80
25200;DHT22;33094;48.782;9.162;2023-03-31T16:00:50;13.40;99.00
25200;DHT22;33094;48.782;9.162;2023-03-31T16:03:32;13.40;98.60
25200;DHT22;33094;48.782;9.162;2023-03-31T16:06:16;13.30;98.50
25200;DHT22;33094;48.782;9.162;2023-03-31T16:08:52;13.30;98.50
25200;DHT22;33094;48.782;9.162;2023-03-31T16:11:36;13.30;98.50
25200;DHT22;33094;48.782;9.162;2023-03-31T16:14:33;13.30;98.50
25200;DHT22;33094;48.782;9.162;2023-03-31T16:17:10;13.30;98.40
25200;DHT22;33094;48.782;9.162;2023-03-31T16:19:44;13.20;98.60
25200;DHT22;33094;48.782;9.162;2023-03-31T16:22:18;13.20;98.20
25200;DHT22;33094;48.782;9.162;2023-03-31T16:24:48;13.10;98.20
25200;DHT22;33094;48.782;9.162;2023-03-31T16:27:15;13.00;98.50
25200;DHT22;33094;48.782;9.162;2023-03-31T16:29:41;12.90;98.20
25200;DHT22;33094;48.782;9.162;2023-03-31T16:32:12;12.90;98.60
25200;DHT22;33094;48.782;9.162;2023-03-31T16:34:55;13.00;98.40
25200;DHT22;33094;48.782;9.162;2023-03-31T16:37:22;12.90;98.40
25200;DHT22;33094;48.782;9.162;2023-03-31T16:39:48;12.60;98.80
25200;DHT22;33094;48.782;9.162;2023-03-31T16:42:14;12.30;99.30
25200;DHT22;33094;48.782;9.162;2023-03-31T16:44:40;12.10;99.90
25200;DHT22;33094;48.782;9.162;2023-03-31T16:47:06;11.90;99.90
25200;DHT22;33094;48.782;9.162;2023-03-31T16:49:31;11.80;99.90
25200;DHT22;33094;48.782;9.162;2023-03-31T16:51:57;11.90;99.90
25200;DHT22;33094;48.782;9.162;2023-03-31T16:54:23;11.90;99.90
25200;DHT22;33094;48.782;9.162;2023-03-31T16:56:50;11.80;99.80
25200;DHT22;33094;48.782;9.162;2023-03-31T16:59:24;11.70;99.90
25200;DHT22;33094;48.782;9.162;2023-03-31T17:01:50;11.70;99.90
25200;DHT22;33094;48.782;9.162;2023-03-31T17:04:25;11.50;99.90
25200;DHT22;33094;48.782;9.162;2023-03-31T17:07:14;11.60;99.90
25200;DHT22;33094;48.782;9.162;2023-03-31T17:09:46;11.50;99.90
25200;DHT22;33094;48.782;9.162;2023-03-31T17:12:15;11.50;99.90
25200;DHT22;33094;48.782;9.162;2023-03-31T17:14:46;11.50;99.90
25200;DHT22;33094;48.782;9.162;2023-03-31T17:17:12;11.60;99.90
25200;DHT22;33094;48.782;9.162;2023-03-31T17:19:38;11.50;99.90
25200;DHT22;33094;48.782;9.162;2023-03-31T17:22:06;11.50;99.90
25200;DHT22;33094;48.782;9.162;2023-03-31T17:24:31;11.40;99.90
25200;DHT22;33094;48.782;9.162;2023-03-31T17:26:57;11.40;99.90
25200;DHT22;33094;48.782;9.162;2023-03-31T17:29:23;11.50;99.90
25200;DHT22;33094;48.782;9.162;2023-03-31T17:31:49;11.60;99.90
25200;DHT22;33094;48.782;9.162;2023-03-31T17:34:15;11.40;99.90
25200;DHT22;33094;48.782;9.162;2023-03-31T17:36:41;11.40;99.90
25200;DHT22;33094;48.782;9.162;2023-03-31T17:39:09;11.30;99.90
25200;DHT22;33094;48.782;9.162;2023-03-31T17:41:35;11.30;99.90
25200;DHT22;33094;48.782;9.162;2023-03-31T17:44:01;11.30;99.90
25200;DHT22;33094;48.782;9.162;2023-03-31T17:46:27;11.30;99.90
25200;DHT22;33094;48.782;9.162;2023-03-31T17:48:52;11.30;99.90
25200;DHT22;33094;48.782;9.162;2023-03-31T17:51:20;11.20;99.90
25200;DHT22;33094;48.782;9.162;2023-03-31T17:53:47;11.20;99.90
25200;DHT22;33094;48.782;9.162;2023-03-31T17:56:14;11.30;99.90
25200;DHT22;33094;48.782;9.162;2023-03-31T17:58:40;11.40;99.90
25200;DHT22;33094;48.782;9.162;2023-03-31T18:01:07;11.30;99.90
25200;DHT22;33094;48.782;9.162;2023-03-31T18:03:34;11.30;99.90
25200;DHT22;33094;48.782;9.162;2023-03-31T18:06:13;11.30;99.90
25200;DHT22;33094;48.782;9.162;2023-03-31T18:08:45;11.40;99.90
25200;DHT22;33094;48.782;9.162;2023-03-31T18:11:18;11.50;99.90
25200;DHT22;33094;48.782;9.162;2023-03-31T18:13:44;11.50;99.90
25200;DHT22;33094;48.782;9.162;2023-03-31T18:16:10;11.40;99.90
25200;DHT22;33094;48.782;9.162;2023-03-31T18:18:37;11.30;99.90
25200;DHT22;33094;48.782;9.162;2023-03-31T18:21:05;11.20;99.90
25200;DHT22;33094;48.782;9.162;2023-03-31T18:23:32;11.20;99.90
25200;DHT22;33094;48.782;9.162;2023-03-31T18:25:58;11.10;99.90
25200;DHT22;33094;48.782;9.162;2023-03-31T18:28:24;10.90;99.90
25200;DHT22;33094;48.782;9.162;2023-03-31T18:30:50;10.80;99.90
25200;DHT22;33094;48.782;9.162;2023-03-31T18:33:15;10.50;99.90
25200;DHT22;33094;48.782;9.162;2023-03-31T18:35:43;10.30;99.90
25200;DHT22;33094;48.782;9.162;2023-03-31T18:38:09;10.30;99.90
25200;DHT22;33094;48.782;9.162;2023-03-31T18:40:35;10.40;99.90
25200;DHT22;33094;48.782;9.162;2023-03-31T18:43:01;10.40;99.90
25200;DHT22;33094;48.782;9.162;2023-03-31T18:45:27;10.50;99.90
25200;DHT22;33094;48.782;9.162;2023-03-31T18:47:54;10.60;99.90
25200;DHT22;33094;48.782;9.162;2023-03-31T18:50:19;10.80;99.90
25200;DHT22;33094;48.782;9.162;2023-03-31T18:52:48;10.80;99.90
25200;DHT22;33094;48.782;9.162;2023-03-31T18:55:16;10.80;99.90
25200;DHT22;33094;48.782;9.162;2023-03-31T18:57:42;10.90;99.90
25200;DHT22;33094;48.782;9.162;2023-03-31T19:00:08;10.90;99.90
25200;DHT22;33094;48.782;9.162;2023-03-31T19:02:34;10.90;99.90
25200;DHT22;33094;48.782;9.162;2023-03-31T19:05:10;10.90;99.90
25200;DHT22;33094;48.782;9.162;2023-03-31T19:07:36;10.90;99.90
25200;DHT22;33094;48.782;9.162;2023-03-31T19:10:01;11.00;99.90
25200;DHT22;33094;48.782;9.162;2023-03-31T19:12:28;10.90;99.90
25200;DHT22;33094;48.782;9.162;2023-03-31T19:14:54;10.90;99.90
25200;DHT22;33094;48.782;9.162;2023-03-31T19:17:20;11.00;99.90
25200;DHT22;33094;48.782;9.162;2023-03-31T19:19:49;11.00;99.90
25200;DHT22;33094;48.782;9.162;2023-03-31T19:22:15;11.10;99.90
25200;DHT22;33094;48.782;9.162;2023-03-31T19:24:41;11.20;99.90
25200;DHT22;33094;48.782;9.162;2023-03-31T19:27:33;11.10;99.90
25200;DHT22;33094;48.782;9.162;2023-03-31T22:11:58;10.00;99.90
25200;DHT22;33094;48.782;9.162;2023-03-31T22:14:24;9.90;99.90
25200;DHT22;33094;48.782;9.162;2023-03-31T22:16:49;9.80;99.90
25200;DHT22;33094;48.782;9.162;2023-03-31T22:19:15;9.80;99.90
25200;DHT22;33094;48.782;9.162;2023-03-31T22:21:40;9.80;99.90
25200;DHT22;33094;48.782;9.162;2023-03-31T22:24:10;9.90;99.90
25200;DHT22;33094;48.782;9.162;2023-03-31T22:26:37;10.00;99.90
25200;DHT22;33094;48.782;9.162;2023-03-31T22:29:02;9.90;99.90
25200;DHT22;33094;48.782;9.162;2023-03-31T22:31:28;9.90;99.90
25200;DHT22;33094;48.782;9.162;2023-03-31T22:33:54;9.80;99.90
25200;DHT22;33094;48.782;9.162;2023-03-31T22:36:20;9.80;99.90
25200;DHT22;33094;48.782;9.162;2023-03-31T22:38:45;9.70;99.90
25200;DHT22;33094;48.782;9.162;2023-03-31T22:41:11;9.80;99.90
25200;DHT22;33094;48.782;9.162;2023-03-31T22:43:37;9.80;99.90
25200;DHT22;33094;48.782;9.162;2023-03-31T22:46:05;9.70;99.90
25200;DHT22;33094;48.782;9.162;2023-03-31T22:48:31;9.80;99.90
25200;DHT22;33094;48.782;9.162;2023-03-31T22:51:03;9.80;99.90
25200;DHT22;33094;48.782;9.162;2023-03-31T22:53:30;9.90;99.90
25200;DHT22;33094;48.782;9.162;2023-03-31T22:56:02;9.80;99.90
25200;DHT22;33094;48.782;9.162;2023-03-31T22:58:28;9.90;99.90
25200;DHT22;33094;48.782;9.162;2023-03-31T23:00:58;9.80;99.90
25200;DHT22;33094;48.782;9.162;2023-03-31T23:03:24;9.90;99.90
25200;DHT22;33094;48.782;9.162;2023-03-31T23:05:50;9.90;99.90
25200;DHT22;33094;48.782;9.162;2023-03-31T23:08:16;9.90;99.90
25200;DHT22;33094;48.782;9.162;2023-03-31T23:10:41;9.90;99.90
25200;DHT22;33094;48.782;9.162;2023-03-31T23:13:07;10.00;99.90
25200;DHT22;33094;48.782;9.162;2023-03-31T23:15:36;9.90;99.90
25200;DHT22;33094;48.782;9.162;2023-03-31T23:18:01;9.80;99.90
25200;DHT22;33094;48.782;9.162;2023-03-31T23:20:27;9.80;99.90
25200;DHT22;33094;48.782;9.162;2023-03-31T23:22:53;9.90;99.90
25200;DHT22;33094;48.782;9.162;2023-03-31T23:25:20;9.80;99.90
25200;DHT22;33094;48.782;9.162;2023-03-31T23:27:46;9.80;99.90
25200;DHT22;33094;48.782;9.162;2023-03-31T23:30:12;9.80;99.90
25200;DHT22;33094;48.782;9.162;2023-03-31T23:32:38;9.80;99.90
25200;DHT22;33094;48.782;9.162;2023-03-31T23:35:04;9.90;99.90
25200;DHT22;33094;48.782;9.162;2023-03-31T23:37:30;9.80;99.90
25200;DHT22;33094;48.782;9.162;2023-03-31T23:39:55;9.80;99.90
25200;DHT22;33094;48.782;9.162;2023-03-31T23:42:21;9.80;99.90
25200;DHT22;33094;48.782;9.162;2023-03-31T23:44:47;9.80;99.90
25200;DHT22;33094;48.782;9.162;2023-03-31T23:47:13;9.80;99.90
25200;DHT22;33094;48.782;9.162;2023-03-31T23:49:38;9.80;99.90
25200;DHT22;33094;48.782;9.162;2023-03-31T23:52:04;9.80;99.90
25200;DHT22;33094;48.782;9.162;2023-03-31T23:54:29;9.80;99.90
25200;DHT22;33094;48.782;9.162;2023-03-31T23:56:55;9.80;99.90
25200;DHT22;33094;48.782;9.162;2023-03-31T23:59:21;9.80;99.90
